sensor_id;sensor_type;location;lat;lon;timestamp;P1;durP1;ratioP1;P2;durP2;ratioP2
2618;SDS011;1319;52.346;13.096;2023-04-03T00:01:21;3.70;;;1.80;;
2618;SDS011;1319;52.346;13.096;2023-04-03T00:03:46;2.70;;;1.63;;
2618;SDS011;1319;52.346;13.096;2023-04-03T00:06:11;8.03;;;2.13;;
2618;SDS011;1319;52.346;13.096;2023-04-03T00:08:37;3.20;;;1.60;;
2618;SDS011;1319;52.346;13.096;2023-04-03T00:11:03;7.33;;;1.90;;
2618;SDS011;1319;52.346;13.096;2023-04-03T00:13:28;5.03;;;1.60;;
2618;SDS011;1319;52.346;13.096;2023-04-03T00:15:54;8.50;;;2.10;;
2618;SDS011;1319;52.346;13.096;2023-04-03T00:18:19;6.33;;;1.70;;
2618;SDS011;1319;52.346;13.096;2023-04-03T00:20:45;6.40;;;1.83;;
2618;SDS011;1319;52.346;13.096;2023-04-03T00:23:10;3.30;;;1.77;;
2618;SDS011;1319;52.346;13.096;2023-04-03T00:25:35;5.37;;;1.80;;
2618;SDS011;1319;52.346;13.096;2023-04-03T00:28:01;5.37;;;1.97;;
2618;SDS011;1319;52.346;13.096;2023-04-03T00:30:27;9.93;;;1.70;;
2618;SDS011;1319;52.346;13.096;2023-04-03T00:32:52;3.47;;;1.57;;
2618;SDS011;1319;52.346;13.096;2023-04-03T00:35:18;4.23;;;1.60;;
2618;SDS011;1319;52.346;13.096;2023-04-03T00:37:44;2.57;;;1.50;;
2618;SDS011;1319;52.346;13.096;2023-04-03T00:40:09;5.30;;;1.73;;
2618;SDS011;1319;52.346;13.096;2023-04-03T00:42:41;8.63;;;1.67;;
2618;SDS011;1319;52.346;13.096;2023-04-03T00:47:38;6.83;;;1.70;;
2618;SDS011;1319;52.346;13.096;2023-04-03T00:50:04;5.40;;;1.80;;
2618;SDS011;1319;52.346;13.096;2023-04-03T00:52:29;10.10;;;1.80;;
2618;SDS011;1319;52.346;13.096;2023-04-03T00:54:57;5.20;;;1.73;;
2618;SDS011;1319;52.346;13.096;2023-04-03T00:57:23;5.90;;;1.90;;
2618;SDS011;1319;52.346;13.096;2023-04-03T00:59:49;6.50;;;1.73;;
2618;SDS011;1319;52.346;13.096;2023-04-03T01:02:15;3.93;;;1.77;;
2618;SDS011;1319;52.346;13.096;2023-04-03T01:04:42;8.37;;;1.70;;
2618;SDS011;1319;52.346;13.096;2023-04-03T01:07:08;5.77;;;1.80;;
2618;SDS011;1319;52.346;13.096;2023-04-03T01:09:34;5.20;;;1.70;;
2618;SDS011;1319;52.346;13.096;2023-04-03T01:14:44;4.37;;;1.70;;
2618;SDS011;1319;52.346;13.096;2023-04-03T01:19:53;7.97;;;1.93;;
2618;SDS011;1319;52.346;13.096;2023-04-03T01:22:25;5.80;;;1.70;;
2618;SDS011;1319;52.346;13.096;2023-04-03T01:24:53;4.20;;;1.67;;
2618;SDS011;1319;52.346;13.096;2023-04-03T01:27:18;5.13;;;1.70;;
2618;SDS011;1319;52.346;13.096;2023-04-03T01:29:43;7.23;;;2.13;;
2618;SDS011;1319;52.346;13.096;2023-04-03T01:32:08;6.23;;;1.67;;
2618;SDS011;1319;52.346;13.096;2023-04-03T01:34:33;4.17;;;1.80;;
2618;SDS011;1319;52.346;13.096;2023-04-03T01:36:59;2.97;;;1.80;;
2618;SDS011;1319;52.346;13.096;2023-04-03T01:39:24;6.53;;;1.70;;
2618;SDS011;1319;52.346;13.096;2023-04-03T01:41:49;9.47;;;1.87;;
2618;SDS011;1319;52.346;13.096;2023-04-03T01:44:15;7.10;;;2.20;;
2618;SDS011;1319;52.346;13.096;2023-04-03T01:46:40;3.17;;;1.60;;
2618;SDS011;1319;52.346;13.096;2023-04-03T01:49:07;4.93;;;1.53;;
2618;SDS011;1319;52.346;13.096;2023-04-03T01:51:32;2.83;;;1.40;;
2618;SDS011;1319;52.346;13.096;2023-04-03T01:53:58;5.03;;;2.23;;
2618;SDS011;1319;52.346;13.096;2023-04-03T01:56:23;3.93;;;1.80;;
2618;SDS011;1319;52.346;13.096;2023-04-03T01:58:48;4.83;;;2.03;;
2618;SDS011;1319;52.346;13.096;2023-04-03T02:01:14;5.60;;;2.23;;
2618;SDS011;1319;52.346;13.096;2023-04-03T02:03:40;5.47;;;2.17;;
2618;SDS011;1319;52.346;13.096;2023-04-03T02:06:05;2.80;;;1.50;;
2618;SDS011;1319;52.346;13.096;2023-04-03T02:08:30;5.73;;;1.90;;
2618;SDS011;1319;52.346;13.096;2023-04-03T02:10:56;5.80;;;1.60;;
2618;SDS011;1319;52.346;13.096;2023-04-03T02:13:21;5.50;;;1.50;;
2618;SDS011;1319;52.346;13.096;2023-04-03T02:15:46;6.23;;;1.50;;
2618;SDS011;1319;52.346;13.096;2023-04-03T02:18:12;3.83;;;1.87;;
2618;SDS011;1319;52.346;13.096;2023-04-03T02:20:37;14.00;;;2.90;;
2618;SDS011;1319;52.346;13.096;2023-04-03T02:23:03;4.10;;;1.63;;
2618;SDS011;1319;52.346;13.096;2023-04-03T02:25:30;7.30;;;2.00;;
2618;SDS011;1319;52.346;13.096;2023-04-03T02:27:55;8.03;;;2.10;;
2618;SDS011;1319;52.346;13.096;2023-04-03T02:30:20;8.80;;;1.83;;
2618;SDS011;1319;52.346;13.096;2023-04-03T02:32:45;6.03;;;1.87;;
2618;SDS011;1319;52.346;13.096;2023-04-03T02:35:11;9.20;;;2.10;;
2618;SDS011;1319;52.346;13.096;2023-04-03T02:37:36;7.33;;;1.97;;
2618;SDS011;1319;52.346;13.096;2023-04-03T02:40:02;4.83;;;1.83;;
2618;SDS011;1319;52.346;13.096;2023-04-03T02:42:27;6.60;;;1.57;;
2618;SDS011;1319;52.346;13.096;2023-04-03T02:44:53;7.33;;;1.97;;
2618;SDS011;1319;52.346;13.096;2023-04-03T02:47:18;6.57;;;2.07;;
2618;SDS011;1319;52.346;13.096;2023-04-03T02:49:43;11.00;;;2.10;;
2618;SDS011;1319;52.346;13.096;2023-04-03T02:52:10;6.53;;;2.00;;
2618;SDS011;1319;52.346;13.096;2023-04-03T02:54:35;7.37;;;2.00;;
2618;SDS011;1319;52.346;13.096;2023-04-03T02:57:00;4.13;;;1.97;;
2618;SDS011;1319;52.346;13.096;2023-04-03T02:59:26;5.17;;;1.70;;
2618;SDS011;1319;52.346;13.096;2023-04-03T03:01:51;6.63;;;1.70;;
2618;SDS011;1319;52.346;13.096;2023-04-03T03:04:16;6.50;;;1.87;;
2618;SDS011;1319;52.346;13.096;2023-04-03T03:06:41;7.67;;;2.07;;
2618;SDS011;1319;52.346;13.096;2023-04-03T03:09:07;7.07;;;2.20;;
2618;SDS011;1319;52.346;13.096;2023-04-03T03:11:32;3.90;;;2.10;;
2618;SDS011;1319;52.346;13.096;2023-04-03T03:13:57;4.17;;;1.97;;
2618;SDS011;1319;52.346;13.096;2023-04-03T03:16:23;3.87;;;1.83;;
2618;SDS011;1319;52.346;13.096;2023-04-03T03:18:48;7.53;;;2.10;;
2618;SDS011;1319;52.346;13.096;2023-04-03T03:21:13;8.33;;;2.07;;
2618;SDS011;1319;52.346;13.096;2023-04-03T03:23:39;4.83;;;1.90;;
2618;SDS011;1319;52.346;13.096;2023-04-03T03:26:05;8.93;;;2.30;;
2618;SDS011;1319;52.346;13.096;2023-04-03T03:28:31;6.80;;;2.43;;
2618;SDS011;1319;52.346;13.096;2023-04-03T03:30:57;3.37;;;1.70;;
2618;SDS011;1319;52.346;13.096;2023-04-03T03:33:22;4.87;;;2.20;;
2618;SDS011;1319;52.346;13.096;2023-04-03T03:35:47;8.43;;;2.13;;
2618;SDS011;1319;52.346;13.096;2023-04-03T03:38:12;7.57;;;2.00;;
2618;SDS011;1319;52.346;13.096;2023-04-03T03:40:38;7.60;;;2.00;;
2618;SDS011;1319;52.346;13.096;2023-04-03T03:43:03;5.77;;;2.00;;
2618;SDS011;1319;52.346;13.096;2023-04-03T03:45:28;4.13;;;1.77;;
2618;SDS011;1319;52.346;13.096;2023-04-03T03:47:53;4.27;;;1.83;;
2618;SDS011;1319;52.346;13.096;2023-04-03T03:50:18;6.73;;;1.93;;
2618;SDS011;1319;52.346;13.096;2023-04-03T03:52:45;6.50;;;2.10;;
2618;SDS011;1319;52.346;13.096;2023-04-03T03:55:10;4.23;;;2.10;;
2618;SDS011;1319;52.346;13.096;2023-04-03T03:57:36;5.07;;;2.10;;
2618;SDS011;1319;52.346;13.096;2023-04-03T04:00:01;7.13;;;2.57;;
2618;SDS011;1319;52.346;13.096;2023-04-03T04:02:27;11.60;;;2.13;;
2618;SDS011;1319;52.346;13.096;2023-04-03T04:04:52;6.20;;;2.33;;
2618;SDS011;1319;52.346;13.096;2023-04-03T04:07:17;9.93;;;2.23;;
2618;SDS011;1319;52.346;13.096;2023-04-03T04:09:42;4.60;;;2.17;;
2618;SDS011;1319;52.346;13.096;2023-04-03T04:12:08;7.67;;;2.10;;
2618;SDS011;1319;52.346;13.096;2023-04-03T04:14:33;10.80;;;2.27;;
2618;SDS011;1319;52.346;13.096;2023-04-03T04:16:58;5.43;;;1.97;;
2618;SDS011;1319;52.346;13.096;2023-04-03T04:19:23;8.80;;;2.20;;
2618;SDS011;1319;52.346;13.096;2023-04-03T04:21:49;7.40;;;2.10;;
2618;SDS011;1319;52.346;13.096;2023-04-03T04:24:14;3.70;;;2.07;;
2618;SDS011;1319;52.346;13.096;2023-04-03T04:26:39;13.80;;;2.50;;
2618;SDS011;1319;52.346;13.096;2023-04-03T04:29:05;5.80;;;2.17;;
2618;SDS011;1319;52.346;13.096;2023-04-03T04:31:30;8.60;;;2.20;;
2618;SDS011;1319;52.346;13.096;2023-04-03T04:33:55;6.93;;;2.27;;
2618;SDS011;1319;52.346;13.096;2023-04-03T04:36:20;4.90;;;2.00;;
2618;SDS011;1319;52.346;13.096;2023-04-03T04:38:45;9.23;;;2.50;;
2618;SDS011;1319;52.346;13.096;2023-04-03T04:41:11;7.70;;;2.50;;
2618;SDS011;1319;52.346;13.096;2023-04-03T04:43:36;10.67;;;2.90;;
2618;SDS011;1319;52.346;13.096;2023-04-03T04:46:05;9.03;;;2.13;;
2618;SDS011;1319;52.346;13.096;2023-04-03T04:48:31;13.00;;;2.43;;
2618;SDS011;1319;52.346;13.096;2023-04-03T04:50:56;8.83;;;2.43;;
2618;SDS011;1319;52.346;13.096;2023-04-03T04:53:21;12.27;;;2.43;;
2618;SDS011;1319;52.346;13.096;2023-04-03T04:55:46;6.97;;;2.20;;
2618;SDS011;1319;52.346;13.096;2023-04-03T04:58:12;7.10;;;2.63;;
2618;SDS011;1319;52.346;13.096;2023-04-03T05:00:37;5.97;;;2.00;;
2618;SDS011;1319;52.346;13.096;2023-04-03T05:03:02;4.80;;;1.90;;
2618;SDS011;1319;52.346;13.096;2023-04-03T05:05:27;6.17;;;2.40;;
2618;SDS011;1319;52.346;13.096;2023-04-03T05:07:53;11.03;;;2.40;;
2618;SDS011;1319;52.346;13.096;2023-04-03T05:10:18;7.97;;;2.13;;
2618;SDS011;1319;52.346;13.096;2023-04-03T05:12:43;6.00;;;2.03;;
2618;SDS011;1319;52.346;13.096;2023-04-03T05:15:08;8.13;;;2.30;;
2618;SDS011;1319;52.346;13.096;2023-04-03T05:17:34;8.93;;;2.17;;
2618;SDS011;1319;52.346;13.096;2023-04-03T05:19:59;6.23;;;2.40;;
2618;SDS011;1319;52.346;13.096;2023-04-03T05:22:24;10.73;;;2.90;;
2618;SDS011;1319;52.346;13.096;2023-04-03T05:24:49;6.90;;;2.00;;
2618;SDS011;1319;52.346;13.096;2023-04-03T05:27:15;10.40;;;2.37;;
2618;SDS011;1319;52.346;13.096;2023-04-03T05:29:40;4.97;;;2.10;;
2618;SDS011;1319;52.346;13.096;2023-04-03T05:32:08;7.27;;;2.47;;
2618;SDS011;1319;52.346;13.096;2023-04-03T05:34:33;8.70;;;2.23;;
2618;SDS011;1319;52.346;13.096;2023-04-03T05:36:58;8.60;;;2.40;;
2618;SDS011;1319;52.346;13.096;2023-04-03T05:39:24;5.20;;;2.40;;
2618;SDS011;1319;52.346;13.096;2023-04-03T05:41:49;7.60;;;2.30;;
2618;SDS011;1319;52.346;13.096;2023-04-03T05:44:14;9.10;;;2.30;;
2618;SDS011;1319;52.346;13.096;2023-04-03T05:46:40;9.80;;;2.20;;
2618;SDS011;1319;52.346;13.096;2023-04-03T05:49:05;9.63;;;2.23;;
2618;SDS011;1319;52.346;13.096;2023-04-03T05:51:32;7.97;;;2.10;;
2618;SDS011;1319;52.346;13.096;2023-04-03T05:54:00;4.53;;;2.00;;
2618;SDS011;1319;52.346;13.096;2023-04-03T05:56:27;9.30;;;2.20;;
2618;SDS011;1319;52.346;13.096;2023-04-03T05:58:53;9.27;;;2.17;;
2618;SDS011;1319;52.346;13.096;2023-04-03T06:01:18;5.97;;;2.30;;
2618;SDS011;1319;52.346;13.096;2023-04-03T06:03:43;5.40;;;1.97;;
2618;SDS011;1319;52.346;13.096;2023-04-03T06:06:11;7.07;;;2.50;;
2618;SDS011;1319;52.346;13.096;2023-04-03T06:08:36;6.77;;;2.23;;
2618;SDS011;1319;52.346;13.096;2023-04-03T06:11:03;8.83;;;2.40;;
2618;SDS011;1319;52.346;13.096;2023-04-03T06:13:28;5.87;;;2.03;;
2618;SDS011;1319;52.346;13.096;2023-04-03T06:15:54;8.73;;;2.27;;
2618;SDS011;1319;52.346;13.096;2023-04-03T06:18:19;4.37;;;2.37;;
2618;SDS011;1319;52.346;13.096;2023-04-03T06:20:45;4.40;;;2.00;;
2618;SDS011;1319;52.346;13.096;2023-04-03T06:23:10;7.53;;;2.20;;
2618;SDS011;1319;52.346;13.096;2023-04-03T06:25:36;7.67;;;2.20;;
2618;SDS011;1319;52.346;13.096;2023-04-03T06:28:02;5.97;;;2.17;;
2618;SDS011;1319;52.346;13.096;2023-04-03T06:30:27;6.10;;;2.17;;
2618;SDS011;1319;52.346;13.096;2023-04-03T06:32:52;6.97;;;2.07;;
2618;SDS011;1319;52.346;13.096;2023-04-03T06:35:17;4.50;;;1.70;;
2618;SDS011;1319;52.346;13.096;2023-04-03T06:37:42;4.53;;;2.03;;
2618;SDS011;1319;52.346;13.096;2023-04-03T06:40:11;7.47;;;1.90;;
2618;SDS011;1319;52.346;13.096;2023-04-03T06:42:40;7.00;;;2.10;;
2618;SDS011;1319;52.346;13.096;2023-04-03T06:45:06;5.97;;;1.60;;
2618;SDS011;1319;52.346;13.096;2023-04-03T06:47:32;9.77;;;1.70;;
2618;SDS011;1319;52.346;13.096;2023-04-03T06:49:57;3.13;;;1.40;;
2618;SDS011;1319;52.346;13.096;2023-04-03T06:52:23;6.47;;;1.53;;
2618;SDS011;1319;52.346;13.096;2023-04-03T06:54:48;4.97;;;1.33;;
2618;SDS011;1319;52.346;13.096;2023-04-03T06:57:13;4.57;;;1.80;;
2618;SDS011;1319;52.346;13.096;2023-04-03T06:59:39;8.47;;;1.90;;
2618;SDS011;1319;52.346;13.096;2023-04-03T07:02:05;5.27;;;1.73;;
2618;SDS011;1319;52.346;13.096;2023-04-03T07:04:30;2.60;;;1.57;;
2618;SDS011;1319;52.346;13.096;2023-04-03T07:06:56;5.53;;;2.00;;
2618;SDS011;1319;52.346;13.096;2023-04-03T07:09:21;4.43;;;1.23;;
2618;SDS011;1319;52.346;13.096;2023-04-03T07:11:46;2.13;;;1.43;;
2618;SDS011;1319;52.346;13.096;2023-04-03T07:14:11;2.83;;;1.50;;
2618;SDS011;1319;52.346;13.096;2023-04-03T07:16:37;11.20;;;1.80;;
2618;SDS011;1319;52.346;13.096;2023-04-03T07:19:02;5.07;;;1.77;;
2618;SDS011;1319;52.346;13.096;2023-04-03T07:21:27;7.87;;;1.67;;
2618;SDS011;1319;52.346;13.096;2023-04-03T07:23:53;3.63;;;1.60;;
2618;SDS011;1319;52.346;13.096;2023-04-03T07:26:18;4.20;;;1.50;;
2618;SDS011;1319;52.346;13.096;2023-04-03T07:28:45;9.93;;;1.80;;
2618;SDS011;1319;52.346;13.096;2023-04-03T07:31:13;3.57;;;1.40;;
2618;SDS011;1319;52.346;13.096;2023-04-03T07:33:38;3.37;;;1.30;;
2618;SDS011;1319;52.346;13.096;2023-04-03T07:36:04;4.33;;;1.97;;
2618;SDS011;1319;52.346;13.096;2023-04-03T07:38:32;3.30;;;1.23;;
2618;SDS011;1319;52.346;13.096;2023-04-03T07:40:57;7.60;;;1.60;;
2618;SDS011;1319;52.346;13.096;2023-04-03T07:43:23;3.83;;;2.00;;
2618;SDS011;1319;52.346;13.096;2023-04-03T07:45:50;3.10;;;1.50;;
2618;SDS011;1319;52.346;13.096;2023-04-03T07:48:16;4.13;;;1.37;;
2618;SDS011;1319;52.346;13.096;2023-04-03T07:50:42;3.97;;;1.40;;
2618;SDS011;1319;52.346;13.096;2023-04-03T07:53:07;5.33;;;1.37;;
2618;SDS011;1319;52.346;13.096;2023-04-03T07:55:33;4.33;;;1.80;;
2618;SDS011;1319;52.346;13.096;2023-04-03T07:57:58;1.93;;;1.40;;
2618;SDS011;1319;52.346;13.096;2023-04-03T08:00:23;5.87;;;1.63;;
2618;SDS011;1319;52.346;13.096;2023-04-03T08:02:49;6.10;;;1.50;;
2618;SDS011;1319;52.346;13.096;2023-04-03T08:05:17;4.60;;;1.40;;
2618;SDS011;1319;52.346;13.096;2023-04-03T08:07:42;3.03;;;1.43;;
2618;SDS011;1319;52.346;13.096;2023-04-03T08:10:08;4.00;;;1.80;;
2618;SDS011;1319;52.346;13.096;2023-04-03T08:12:33;2.33;;;1.30;;
2618;SDS011;1319;52.346;13.096;2023-04-03T08:15:00;6.03;;;1.30;;
2618;SDS011;1319;52.346;13.096;2023-04-03T08:17:26;4.20;;;1.20;;
2618;SDS011;1319;52.346;13.096;2023-04-03T08:19:51;2.40;;;1.53;;
2618;SDS011;1319;52.346;13.096;2023-04-03T08:22:16;1.77;;;1.47;;
2618;SDS011;1319;52.346;13.096;2023-04-03T08:24:42;2.23;;;1.23;;
2618;SDS011;1319;52.346;13.096;2023-04-03T08:27:07;1.70;;;1.03;;
2618;SDS011;1319;52.346;13.096;2023-04-03T08:29:32;3.17;;;1.30;;
2618;SDS011;1319;52.346;13.096;2023-04-03T08:31:57;2.93;;;1.30;;
2618;SDS011;1319;52.346;13.096;2023-04-03T08:34:23;2.67;;;1.40;;
2618;SDS011;1319;52.346;13.096;2023-04-03T08:36:48;2.07;;;1.20;;
2618;SDS011;1319;52.346;13.096;2023-04-03T08:39:14;1.87;;;1.30;;
2618;SDS011;1319;52.346;13.096;2023-04-03T08:41:40;2.70;;;1.37;;
2618;SDS011;1319;52.346;13.096;2023-04-03T08:44:10;3.87;;;1.40;;
2618;SDS011;1319;52.346;13.096;2023-04-03T08:49:03;1.93;;;1.60;;
2618;SDS011;1319;52.346;13.096;2023-04-03T08:51:29;8.83;;;1.77;;
2618;SDS011;1319;52.346;13.096;2023-04-03T08:53:57;2.97;;;1.67;;
2618;SDS011;1319;52.346;13.096;2023-04-03T08:56:24;2.43;;;1.30;;
2618;SDS011;1319;52.346;13.096;2023-04-03T08:58:52;5.37;;;1.20;;
2618;SDS011;1319;52.346;13.096;2023-04-03T09:01:23;3.63;;;1.53;;
2618;SDS011;1319;52.346;13.096;2023-04-03T09:03:49;5.20;;;1.33;;
2618;SDS011;1319;52.346;13.096;2023-04-03T09:08:43;3.23;;;1.43;;
2618;SDS011;1319;52.346;13.096;2023-04-03T09:11:13;2.40;;;1.30;;
2618;SDS011;1319;52.346;13.096;2023-04-03T09:13:47;3.53;;;1.80;;
2618;SDS011;1319;52.346;13.096;2023-04-03T09:18:45;6.37;;;1.60;;
2618;SDS011;1319;52.346;13.096;2023-04-03T09:21:28;3.13;;;1.70;;
2618;SDS011;1319;52.346;13.096;2023-04-03T09:23:58;5.50;;;1.70;;
2618;SDS011;1319;52.346;13.096;2023-04-03T09:26:25;4.17;;;1.60;;
2618;SDS011;1319;52.346;13.096;2023-04-03T09:28:54;3.53;;;1.50;;
2618;SDS011;1319;52.346;13.096;2023-04-03T09:33:46;3.13;;;1.40;;
2618;SDS011;1319;52.346;13.096;2023-04-03T09:36:12;3.63;;;1.70;;
2618;SDS011;1319;52.346;13.096;2023-04-03T09:38:38;3.57;;;1.27;;
2618;SDS011;1319;52.346;13.096;2023-04-03T09:41:05;2.47;;;1.40;;
2618;SDS011;1319;52.346;13.096;2023-04-03T09:43:31;3.00;;;1.50;;
2618;SDS011;1319;52.346;13.096;2023-04-03T09:46:16;2.03;;;1.37;;
2618;SDS011;1319;52.346;13.096;2023-04-03T09:48:49;2.57;;;1.40;;
2618;SDS011;1319;52.346;13.096;2023-04-03T09:51:15;2.20;;;1.60;;
2618;SDS011;1319;52.346;13.096;2023-04-03T09:53:43;5.07;;;1.60;;
2618;SDS011;1319;52.346;13.096;2023-04-03T09:58:40;2.60;;;1.47;;
2618;SDS011;1319;52.346;13.096;2023-04-03T10:01:09;4.60;;;1.60;;
2618;SDS011;1319;52.346;13.096;2023-04-03T10:03:45;3.73;;;1.50;;
2618;SDS011;1319;52.346;13.096;2023-04-03T10:06:45;3.50;;;1.50;;
2618;SDS011;1319;52.346;13.096;2023-04-03T10:09:12;3.57;;;1.50;;
2618;SDS011;1319;52.346;13.096;2023-04-03T10:11:44;2.77;;;1.30;;
2618;SDS011;1319;52.346;13.096;2023-04-03T10:14:21;4.67;;;1.57;;
2618;SDS011;1319;52.346;13.096;2023-04-03T10:19:38;3.40;;;1.40;;
2618;SDS011;1319;52.346;13.096;2023-04-03T10:22:12;4.60;;;1.50;;
2618;SDS011;1319;52.346;13.096;2023-04-03T10:30:31;2.87;;;1.30;;
2618;SDS011;1319;52.346;13.096;2023-04-03T10:32:57;4.97;;;1.37;;
2618;SDS011;1319;52.346;13.096;2023-04-03T10:35:34;2.43;;;1.40;;
2618;SDS011;1319;52.346;13.096;2023-04-03T10:38:16;1.50;;;1.37;;
2618;SDS011;1319;52.346;13.096;2023-04-03T10:51:48;4.27;;;1.43;;
2618;SDS011;1319;52.346;13.096;2023-04-03T10:53:49;2.87;;;1.40;;
2618;SDS011;1319;52.346;13.096;2023-04-03T10:58:46;3.70;;;1.40;;
2618;SDS011;1319;52.346;13.096;2023-04-03T11:01:20;2.13;;;1.20;;
2618;SDS011;1319;52.346;13.096;2023-04-03T11:03:47;2.83;;;1.70;;
2618;SDS011;1319;52.346;13.096;2023-04-03T11:06:15;3.27;;;1.50;;
2618;SDS011;1319;52.346;13.096;2023-04-03T11:08:56;2.13;;;1.30;;
2618;SDS011;1319;52.346;13.096;2023-04-03T11:11:26;3.27;;;1.70;;
2618;SDS011;1319;52.346;13.096;2023-04-03T11:14:09;2.97;;;1.50;;
2618;SDS011;1319;52.346;13.096;2023-04-03T11:16:36;4.23;;;1.30;;
2618;SDS011;1319;52.346;13.096;2023-04-03T11:19:03;3.50;;;1.63;;
2618;SDS011;1319;52.346;13.096;2023-04-03T11:21:33;5.03;;;1.30;;
2618;SDS011;1319;52.346;13.096;2023-04-03T11:24:00;1.73;;;1.23;;
2618;SDS011;1319;52.346;13.096;2023-04-03T11:26:29;2.17;;;1.70;;
2618;SDS011;1319;52.346;13.096;2023-04-03T11:29:02;1.70;;;1.40;;
2618;SDS011;1319;52.346;13.096;2023-04-03T11:36:26;3.97;;;1.30;;
2618;SDS011;1319;52.346;13.096;2023-04-03T11:38:54;1.30;;;1.20;;
2618;SDS011;1319;52.346;13.096;2023-04-03T11:41:30;1.40;;;1.30;;
2618;SDS011;1319;52.346;13.096;2023-04-03T11:44:00;1.67;;;1.30;;
2618;SDS011;1319;52.346;13.096;2023-04-03T11:49:49;4.73;;;1.40;;
2618;SDS011;1319;52.346;13.096;2023-04-03T11:51:57;1.67;;;1.40;;
2618;SDS011;1319;52.346;13.096;2023-04-03T11:54:42;2.60;;;1.50;;
2618;SDS011;1319;52.346;13.096;2023-04-03T12:00:54;2.07;;;1.17;;
2618;SDS011;1319;52.346;13.096;2023-04-03T12:02:54;1.70;;;1.17;;
2618;SDS011;1319;52.346;13.096;2023-04-03T12:05:26;1.30;;;1.20;;
2618;SDS011;1319;52.346;13.096;2023-04-03T12:13:41;2.13;;;1.33;;
2618;SDS011;1319;52.346;13.096;2023-04-03T12:16:07;1.40;;;1.30;;
2618;SDS011;1319;52.346;13.096;2023-04-03T12:21:18;1.83;;;1.30;;
2618;SDS011;1319;52.346;13.096;2023-04-03T12:26:30;3.90;;;1.67;;
2618;SDS011;1319;52.346;13.096;2023-04-03T12:28:57;2.40;;;1.20;;
2618;SDS011;1319;52.346;13.096;2023-04-03T12:31:24;2.43;;;1.47;;
2618;SDS011;1319;52.346;13.096;2023-04-03T12:33:56;1.53;;;1.33;;
2618;SDS011;1319;52.346;13.096;2023-04-03T12:36:36;4.30;;;1.30;;
2618;SDS011;1319;52.346;13.096;2023-04-03T12:39:16;2.63;;;1.43;;
2618;SDS011;1319;52.346;13.096;2023-04-03T12:41:53;3.00;;;1.20;;
2618;SDS011;1319;52.346;13.096;2023-04-03T12:44:24;3.03;;;1.30;;
2618;SDS011;1319;52.346;13.096;2023-04-03T12:46:52;1.97;;;1.10;;
2618;SDS011;1319;52.346;13.096;2023-04-03T12:49:24;3.00;;;1.60;;
2618;SDS011;1319;52.346;13.096;2023-04-03T12:51:51;2.57;;;1.30;;
2618;SDS011;1319;52.346;13.096;2023-04-03T12:54:25;1.50;;;1.40;;
2618;SDS011;1319;52.346;13.096;2023-04-03T12:56:51;1.33;;;1.23;;
2618;SDS011;1319;52.346;13.096;2023-04-03T12:59:21;1.30;;;1.20;;
2618;SDS011;1319;52.346;13.096;2023-04-03T13:01:53;3.07;;;1.20;;
2618;SDS011;1319;52.346;13.096;2023-04-03T13:04:19;4.40;;;1.30;;
2618;SDS011;1319;52.346;13.096;2023-04-03T13:06:44;1.43;;;1.30;;
2618;SDS011;1319;52.346;13.096;2023-04-03T13:09:29;3.20;;;1.30;;
2618;SDS011;1319;52.346;13.096;2023-04-03T13:11:57;2.83;;;1.30;;
2618;SDS011;1319;52.346;13.096;2023-04-03T13:14:23;1.20;;;1.07;;
2618;SDS011;1319;52.346;13.096;2023-04-03T13:17:32;2.37;;;1.63;;
2618;SDS011;1319;52.346;13.096;2023-04-03T13:19:39;3.53;;;1.73;;
2618;SDS011;1319;52.346;13.096;2023-04-03T13:22:06;3.00;;;1.50;;
2618;SDS011;1319;52.346;13.096;2023-04-03T13:24:32;3.77;;;1.37;;
2618;SDS011;1319;52.346;13.096;2023-04-03T13:26:58;3.47;;;1.50;;
2618;SDS011;1319;52.346;13.096;2023-04-03T13:29:33;3.93;;;1.50;;
2618;SDS011;1319;52.346;13.096;2023-04-03T13:32:00;2.93;;;1.40;;
2618;SDS011;1319;52.346;13.096;2023-04-03T13:34:27;3.10;;;1.40;;
2618;SDS011;1319;52.346;13.096;2023-04-03T13:41:45;2.43;;;1.30;;
2618;SDS011;1319;52.346;13.096;2023-04-03T13:46:45;1.40;;;1.30;;
2618;SDS011;1319;52.346;13.096;2023-04-03T13:49:31;1.43;;;1.20;;
2618;SDS011;1319;52.346;13.096;2023-04-03T13:51:57;6.37;;;1.70;;
2618;SDS011;1319;52.346;13.096;2023-04-03T13:54:24;1.67;;;1.33;;
2618;SDS011;1319;52.346;13.096;2023-04-03T13:56:53;2.87;;;1.40;;
2618;SDS011;1319;52.346;13.096;2023-04-03T13:59:37;1.30;;;1.20;;
2618;SDS011;1319;52.346;13.096;2023-04-03T14:04:29;1.30;;;1.20;;
2618;SDS011;1319;52.346;13.096;2023-04-03T14:06:55;3.23;;;1.30;;
2618;SDS011;1319;52.346;13.096;2023-04-03T14:09:21;1.13;;;1.13;;
2618;SDS011;1319;52.346;13.096;2023-04-03T14:11:47;2.83;;;1.67;;
2618;SDS011;1319;52.346;13.096;2023-04-03T14:14:15;1.60;;;1.30;;
2618;SDS011;1319;52.346;13.096;2023-04-03T14:16:41;2.50;;;1.30;;
2618;SDS011;1319;52.346;13.096;2023-04-03T14:19:07;2.33;;;1.17;;
2618;SDS011;1319;52.346;13.096;2023-04-03T14:21:35;1.27;;;1.17;;
2618;SDS011;1319;52.346;13.096;2023-04-03T14:24:00;3.07;;;1.20;;
2618;SDS011;1319;52.346;13.096;2023-04-03T14:26:25;3.57;;;1.50;;
2618;SDS011;1319;52.346;13.096;2023-04-03T14:28:54;1.47;;;1.37;;
2618;SDS011;1319;52.346;13.096;2023-04-03T14:31:20;3.47;;;1.73;;
2618;SDS011;1319;52.346;13.096;2023-04-03T14:33:46;1.57;;;1.10;;
2618;SDS011;1319;52.346;13.096;2023-04-03T14:36:13;1.53;;;1.30;;
2618;SDS011;1319;52.346;13.096;2023-04-03T14:38:38;2.17;;;1.33;;
2618;SDS011;1319;52.346;13.096;2023-04-03T14:41:03;2.60;;;1.37;;
2618;SDS011;1319;52.346;13.096;2023-04-03T14:43:29;2.87;;;1.30;;
2618;SDS011;1319;52.346;13.096;2023-04-03T14:45:54;1.97;;;1.20;;
2618;SDS011;1319;52.346;13.096;2023-04-03T14:48:24;1.57;;;1.20;;
2618;SDS011;1319;52.346;13.096;2023-04-03T14:50:50;3.37;;;1.70;;
2618;SDS011;1319;52.346;13.096;2023-04-03T14:53:15;4.93;;;1.30;;
2618;SDS011;1319;52.346;13.096;2023-04-03T14:55:42;1.90;;;1.27;;
2618;SDS011;1319;52.346;13.096;2023-04-03T14:58:09;2.00;;;1.40;;
2618;SDS011;1319;52.346;13.096;2023-04-03T15:00:36;4.80;;;1.50;;
2618;SDS011;1319;52.346;13.096;2023-04-03T15:03:02;5.73;;;1.53;;
2618;SDS011;1319;52.346;13.096;2023-04-03T15:05:27;1.53;;;1.30;;
2618;SDS011;1319;52.346;13.096;2023-04-03T15:07:53;4.20;;;1.30;;
2618;SDS011;1319;52.346;13.096;2023-04-03T15:10:24;3.17;;;1.50;;
2618;SDS011;1319;52.346;13.096;2023-04-03T15:12:50;2.70;;;1.47;;
2618;SDS011;1319;52.346;13.096;2023-04-03T15:15:17;2.50;;;1.40;;
2618;SDS011;1319;52.346;13.096;2023-04-03T15:17:42;1.27;;;1.20;;
2618;SDS011;1319;52.346;13.096;2023-04-03T15:20:15;1.33;;;1.20;;
2618;SDS011;1319;52.346;13.096;2023-04-03T15:22:40;2.30;;;1.33;;
2618;SDS011;1319;52.346;13.096;2023-04-03T15:25:06;2.70;;;1.10;;
2618;SDS011;1319;52.346;13.096;2023-04-03T15:27:31;3.80;;;1.43;;
2618;SDS011;1319;52.346;13.096;2023-04-03T15:29:56;1.70;;;1.60;;
2618;SDS011;1319;52.346;13.096;2023-04-03T15:32:21;1.90;;;1.33;;
2618;SDS011;1319;52.346;13.096;2023-04-03T15:34:46;2.60;;;1.50;;
2618;SDS011;1319;52.346;13.096;2023-04-03T15:37:12;3.53;;;1.40;;
2618;SDS011;1319;52.346;13.096;2023-04-03T15:39:37;3.00;;;1.37;;
2618;SDS011;1319;52.346;13.096;2023-04-03T15:42:02;3.03;;;1.30;;
2618;SDS011;1319;52.346;13.096;2023-04-03T15:44:31;2.37;;;1.60;;
2618;SDS011;1319;52.346;13.096;2023-04-03T15:46:57;4.47;;;1.70;;
2618;SDS011;1319;52.346;13.096;2023-04-03T15:49:23;1.97;;;1.70;;
2618;SDS011;1319;52.346;13.096;2023-04-03T15:51:48;6.30;;;2.00;;
2618;SDS011;1319;52.346;13.096;2023-04-03T15:54:13;6.20;;;2.13;;
2618;SDS011;1319;52.346;13.096;2023-04-03T15:56:39;2.57;;;1.83;;
2618;SDS011;1319;52.346;13.096;2023-04-03T15:59:04;4.13;;;2.00;;
2618;SDS011;1319;52.346;13.096;2023-04-03T16:01:30;4.60;;;1.93;;
2618;SDS011;1319;52.346;13.096;2023-04-03T16:03:56;2.23;;;1.50;;
2618;SDS011;1319;52.346;13.096;2023-04-03T16:06:21;1.97;;;1.87;;
2618;SDS011;1319;52.346;13.096;2023-04-03T16:08:46;4.57;;;2.40;;
2618;SDS011;1319;52.346;13.096;2023-04-03T16:11:12;2.77;;;2.03;;
2618;SDS011;1319;52.346;13.096;2023-04-03T16:13:38;2.50;;;1.70;;